Strona główna
METAR-TAF:

METAR-TAF

Lotnisko :

Bloomington, Indiana, Stany Zjednoczone

Szerokość geograficzna: 39-08-35N, Długość geograficzna: 086-37-00W, wysokość: 257 m

Aktualna obserwacja pogody

Raport powstał 10 minut temu, godzina 14:28 UTC
Wiatr 9 kt od południowo-południowy zachód
Temperatura 28°C
Wilgotność 89%
Ciśnienie 1016 hPa
Widzialność: 16.1 km
Rozproszone chmury na wysokości 1500 ft

METAR: KBMG 191428Z 21009KT 10SM SCT015 28/26 A3000 RMK AO2 T02830261

czas: 10:38 (14:38 UTC)

Prognoza

Raport powstał 30 minut temu, godzina 14:08 UTC
Prognoza ważna od 19 godzina 14 UTC do 20 godzina 12 UTC
Wiatr 8 kt od południowy zachód
Widzialność: 10 km
Przerywane chmury na wysokości 1200 ft
Od 19 godzina 1600 UTC
Wiatr 7 kt od południowy zachód
Widzialność: 10 km
Rozproszone chmury na wysokości 25000 ft

TAF: KBMG 191408Z 1914/2012 22008KT P6SM BKN012 FM191600 22007KT P6SM SCT250

Obserwacja i prognoza pogody dla ponad 4000 lotnisk (raport METAR i TAF).

Dostępne stacje oznaczono żółtymi i czerwonymi punktami na mapie.

Najedź kursorem aby zobaczyć nazwę stacji.

Kliknij aby zobaczyć obserwacje i prognozy pogody.

Aby zmienić mapę: kliknij na zielony przycisk z czarnym krzyżykiem, aby powiększyć; na zielony przycisk z myślnikiem, aby pomniejszyć; na zielone strzałki, aby przejść do map sąsiednich.


METAR-TAF: